Terminal Aerodrome Forecast
Issued by NWS

Home | Current Version | Previous Version | Text Only | Print | Product List | Glossary On
Versions: 1 2 3 4 5 6 7 8 9 10 11 12 13 14 15 16 17 18 19 20 21 22 23 24 25 26 27 28
000
FTUS43 KAPX 181430 AAA
TAFMBL
TAF AMD
KMBL 181430Z 1815/1912 01004KT P6SM OVC020
     FM181800 36005KT P6SM BKN040
     FM190200 04003KT P6SM SCT035
      AMD LTD TO CLD VIS AND WIND=

USA.gov is the U.S. government's official web portal to all federal, state and local government web resources and services.